Time;durP1;ratioP1;P1;durP2;ratioP2;P2;SDS_P1;SDS_P2;PMS_P1;PMS_P2;Temp;Humidity;BMP_temperature;BMP_pressure;BME280_temperature;BME280_humidity;BME280_pressure;Samples;Min_cycle;Max_cycle;Signal;HPM_P1;HPM_P2
2022/12/10 00:01:15;;;;;;;6.00;5.50;;;20.90;36.60;;;;;;6115852;23;20072;-65
2022/12/10 00:03:41;;;;;;;6.15;5.55;;;20.90;36.50;;;;;;6090976;23;20040;-65
2022/12/10 00:06:13;;;;;;;6.00;5.40;;;20.90;36.50;;;;;;6117400;23;20013;-65
2022/12/10 00:08:39;;;;;;;6.50;5.90;;;20.90;36.60;;;;;;6066972;23;20021;-65
2022/12/10 00:11:08;;;;;;;6.38;5.78;;;20.80;36.50;;;;;;6090061;23;20438;-65
2022/12/10 00:13:36;;;;;;;5.93;5.32;;;20.80;36.40;;;;;;6090992;23;20065;-66
2022/12/10 00:16:03;;;;;;;6.50;5.88;;;20.80;36.50;;;;;;6066726;23;20081;-65
2022/12/10 00:18:29;;;;;;;6.20;5.68;;;20.70;36.40;;;;;;6091632;23;20689;-65
2022/12/10 00:20:55;;;;;;;6.10;5.60;;;20.70;36.40;;;;;;6041984;23;20022;-65
2022/12/10 00:23:21;;;;;;;6.95;5.30;;;20.70;37.10;;;;;;6090488;23;20481;-65
2022/12/10 00:25:47;;;;;;;7.18;6.20;;;20.70;36.30;;;;;;6066914;23;20076;-65
2022/12/10 00:28:13;;;;;;;7.55;6.32;;;20.70;36.40;;;;;;6066596;23;20434;-65
2022/12/10 00:30:39;;;;;;;6.45;5.85;;;20.70;36.30;;;;;;6089419;23;20134;-65
2022/12/10 00:33:05;;;;;;;6.25;5.65;;;20.60;36.30;;;;;;6091083;23;20411;-64
2022/12/10 00:35:35;;;;;;;6.57;5.97;;;20.60;36.30;;;;;;6114786;23;20021;-64
2022/12/10 00:38:00;;;;;;;6.95;6.25;;;20.60;36.30;;;;;;6066912;23;20073;-65
2022/12/10 00:40:26;;;;;;;6.22;5.63;;;20.60;36.30;;;;;;6065648;23;20431;-64
2022/12/10 00:42:52;;;;;;;6.20;5.60;;;20.50;36.30;;;;;;6090736;23;20021;-64
2022/12/10 00:45:18;;;;;;;6.90;6.20;;;20.50;36.30;;;;;;6066433;23;20029;-64
2022/12/10 00:47:44;;;;;;;6.35;5.75;;;20.50;36.30;;;;;;6090472;23;20026;-64
2022/12/10 00:50:10;;;;;;;6.22;5.63;;;20.50;36.20;;;;;;6090529;23;20064;-64
2022/12/10 00:52:36;;;;;;;6.55;5.95;;;20.50;36.20;;;;;;6089750;23;20334;-63
2022/12/10 00:55:02;;;;;;;6.35;5.75;;;20.50;36.10;;;;;;6117004;23;20014;-64
2022/12/10 00:57:28;;;;;;;7.70;6.07;;;20.40;36.10;;;;;;6066652;23;20049;-64
2022/12/10 00:59:54;;;;;;;5.95;5.45;;;20.40;36.20;;;;;;6090599;23;20017;-64
2022/12/10 01:02:20;;;;;;;6.53;5.95;;;20.40;36.10;;;;;;6090527;23;20513;-64
2022/12/10 01:04:46;;;;;;;7.03;6.35;;;20.40;36.10;;;;;;6066546;23;20116;-64
2022/12/10 01:07:13;;;;;;;6.72;5.93;;;20.30;36.10;;;;;;6091136;23;20085;-64
2022/12/10 01:09:39;;;;;;;6.70;6.10;;;20.30;36.20;;;;;;6115452;23;20026;-64
2022/12/10 01:12:05;;;;;;;6.40;5.80;;;20.30;36.10;;;;;;6116154;23;20022;-64
2022/12/10 01:14:33;;;;;;;6.90;6.30;;;20.30;36.10;;;;;;6090468;23;20375;-65
2022/12/10 01:17:03;;;;;;;6.88;6.18;;;20.20;36.00;;;;;;6116625;23;20048;-65
2022/12/10 01:19:33;;;;;;;;;;;20.30;36.10;;;;;;6067043;23;20018;-64
2022/12/10 01:21:58;;;;;;;6.75;6.13;;;20.20;35.80;;;;;;6067764;23;19924;-64
2022/12/10 01:24:27;;;;;;;7.10;6.30;;;20.10;36.90;;;;;;6068373;23;20368;-64
2022/12/10 01:26:55;;;;;;;7.25;6.55;;;20.10;36.10;;;;;;6091712;23;20145;-65
2022/12/10 01:29:21;;;;;;;7.20;6.50;;;20.10;36.00;;;;;;6043539;23;20152;-64
2022/12/10 01:31:51;;;;;;;6.90;6.18;;;20.10;36.00;;;;;;6092242;23;20018;-64
2022/12/10 01:34:17;;;;;;;7.20;6.50;;;20.10;36.00;;;;;;6092311;23;20438;-64
2022/12/10 01:36:45;;;;;;;7.57;6.88;;;20.10;36.00;;;;;;6091756;23;20029;-64
2022/12/10 01:39:14;;;;;;;7.55;6.57;;;20.10;35.90;;;;;;6067924;23;20243;-64
2022/12/10 01:41:42;;;;;;;7.32;6.60;;;20.10;35.90;;;;;;6067694;23;20450;-65
2022/12/10 01:44:08;;;;;;;6.35;5.75;;;20.10;35.80;;;;;;6090589;23;20457;-64
2022/12/10 01:46:41;;;;;;;7.32;6.63;;;20.10;35.90;;;;;;6118007;23;20010;-63
2022/12/10 01:49:10;;;;;;;7.22;6.53;;;20.00;35.80;;;;;;6116728;23;20496;-64
2022/12/10 01:51:37;;;;;;;6.57;5.97;;;20.10;35.90;;;;;;6065740;23;20383;-65
2022/12/10 01:54:07;;;;;;;7.57;6.78;;;20.10;35.90;;;;;;6091988;23;20038;-64
2022/12/10 01:56:38;;;;;;;6.60;6.00;;;20.00;35.70;;;;;;6091636;23;20022;-64
2022/12/10 01:59:05;;;;;;;7.40;6.70;;;20.00;35.70;;;;;;6066757;23;20464;-64
2022/12/10 02:01:57;;;;;;;6.93;6.32;;;20.00;35.70;;;;;;6067354;23;20018;-64
2022/12/10 02:04:43;;;;;;;6.90;6.25;;;20.00;35.70;;;;;;6068088;23;20446;-64
2022/12/10 02:07:31;;;;;;;7.65;6.85;;;19.90;35.70;;;;;;6117358;23;20105;-63
2022/12/10 02:10:21;;;;;;;7.50;6.65;;;19.90;35.70;;;;;;6068158;23;20434;-64
2022/12/10 02:12:56;;;;;;;8.07;7.13;;;19.90;35.60;;;;;;6091020;23;20025;-64
2022/12/10 02:15:26;;;;;;;7.72;6.93;;;19.90;35.70;;;;;;6089438;23;20490;-65
2022/12/10 02:17:56;;;;;;;8.05;7.25;;;19.90;35.60;;;;;;6091576;23;20010;-63
2022/12/10 02:20:57;;;;;;;7.15;6.43;;;19.90;35.60;;;;;;6117046;23;20014;-64
2022/12/10 02:23:40;;;;;;;7.05;6.45;;;19.90;35.40;;;;;;6037391;23;20308;-66
2022/12/10 02:26:12;;;;;;;7.55;6.85;;;19.80;35.60;;;;;;6116201;23;20112;-65
2022/12/10 02:29:06;;;;;;;7.65;6.60;;;19.80;35.60;;;;;;6067373;23;20762;-64
2022/12/10 02:31:33;;;;;;;7.65;6.80;;;19.80;35.40;;;;;;6091277;23;20179;-64
2022/12/10 02:34:04;;;;;;;7.50;6.70;;;19.80;35.60;;;;;;6090313;23;20028;-64
2022/12/10 02:36:35;;;;;;;7.75;6.95;;;19.80;35.60;;;;;;6043698;23;20073;-64
2022/12/10 02:39:03;;;;;;;8.00;7.20;;;19.80;35.50;;;;;;6117790;23;20017;-64
2022/12/10 02:41:34;;;;;;;7.97;6.90;;;19.70;35.50;;;;;;6090966;23;20333;-63
2022/12/10 02:44:04;;;;;;;7.50;6.80;;;19.70;35.40;;;;;;6067570;23;20346;-65
2022/12/10 02:46:32;;;;;;;8.10;6.97;;;19.70;35.50;;;;;;6091039;23;20026;-64
2022/12/10 02:49:01;;;;;;;7.75;6.95;;;19.70;35.50;;;;;;6117774;23;20021;-65
2022/12/10 02:51:27;;;;;;;7.50;6.80;;;19.70;35.50;;;;;;6116522;23;20017;-64
2022/12/10 02:54:00;;;;;;;7.90;7.10;;;19.70;35.50;;;;;;6091632;23;20053;-64
2022/12/10 02:56:31;;;;;;;7.85;7.07;;;19.70;35.40;;;;;;6090806;23;20013;-64
2022/12/10 02:59:12;;;;;;;7.95;7.15;;;19.70;35.50;;;;;;6067386;23;20020;-64
2022/12/10 03:02:10;;;;;;;8.30;7.50;;;19.60;35.40;;;;;;6090274;23;20488;-65
2022/12/10 03:05:02;;;;;;;7.75;6.95;;;19.60;35.20;;;;;;6116903;23;20350;-64
2022/12/10 03:07:46;;;;;;;8.00;7.20;;;19.60;35.30;;;;;;6066615;23;20803;-65
2022/12/10 03:10:26;;;;;;;7.57;6.88;;;19.60;35.30;;;;;;6065969;23;20018;-64
2022/12/10 03:12:59;;;;;;;8.13;7.32;;;19.60;35.30;;;;;;6091544;23;20093;-65
2022/12/10 03:15:27;;;;;;;7.82;7.13;;;19.60;35.30;;;;;;6066799;23;20022;-65
2022/12/10 03:17:55;;;;;;;8.50;7.70;;;19.50;35.30;;;;;;6090935;23;20053;-63
2022/12/10 03:20:24;;;;;;;8.05;7.25;;;19.50;35.30;;;;;;6090550;23;20077;-64
2022/12/10 03:22:50;;;;;;;8.10;7.30;;;19.50;35.30;;;;;;6067254;23;20021;-64
2022/12/10 03:25:22;;;;;;;7.88;7.13;;;19.50;35.30;;;;;;6090114;23;20018;-64
2022/12/10 03:27:51;;;;;;;8.45;7.25;;;19.50;35.30;;;;;;6091049;23;20014;-65
2022/12/10 03:30:17;;;;;;;7.47;6.78;;;19.40;35.20;;;;;;6066855;23;20540;-67
2022/12/10 03:32:44;;;;;;;8.40;7.50;;;19.50;35.30;;;;;;6117296;23;20186;-65
2022/12/10 03:35:12;;;;;;;7.82;7.03;;;19.40;35.20;;;;;;6090204;23;20072;-64
2022/12/10 03:37:38;;;;;;;7.90;7.10;;;19.40;35.10;;;;;;6090370;23;20052;-65
2022/12/10 03:40:06;;;;;;;8.05;7.25;;;19.40;35.10;;;;;;6090507;23;20045;-64
2022/12/10 03:42:34;;;;;;;9.23;7.65;;;19.40;35.10;;;;;;6116412;23;20065;-66
2022/12/10 03:45:00;;;;;;;8.18;7.38;;;19.40;35.20;;;;;;6091299;23;20740;-64
2022/12/10 03:47:26;;;;;;;7.78;6.90;;;19.40;35.10;;;;;;6091126;23;20021;-64
2022/12/10 03:49:55;;;;;;;8.13;7.32;;;19.40;35.10;;;;;;6116976;23;20022;-64
2022/12/10 03:52:21;;;;;;;8.20;7.40;;;19.40;35.10;;;;;;6117371;23;20021;-64
2022/12/10 03:54:46;;;;;;;7.43;6.72;;;19.40;35.10;;;;;;6091673;23;20453;-64
2022/12/10 03:57:12;;;;;;;8.30;7.47;;;19.40;35.10;;;;;;6091659;23;20053;-65
2022/12/10 03:59:38;;;;;;;7.80;7.10;;;19.30;35.00;;;;;;6117025;23;20022;-65
2022/12/10 04:02:04;;;;;;;8.88;7.97;;;19.30;35.00;;;;;;6117241;23;20017;-64
2022/12/10 04:04:30;;;;;;;8.38;7.47;;;19.30;35.00;;;;;;6091674;23;20383;-65
2022/12/10 04:06:56;;;;;;;8.68;7.78;;;19.30;35.00;;;;;;6091464;23;20018;-65
2022/12/10 04:09:22;;;;;;;8.23;7.28;;;19.30;35.00;;;;;;6090623;23;20025;-65
2022/12/10 04:11:48;;;;;;;9.15;8.02;;;19.30;35.00;;;;;;6115010;23;20052;-64
2022/12/10 04:16:59;;;;;;;8.55;7.65;;;19.20;35.00;;;;;;6090868;23;20450;-65
2022/12/10 04:19:25;;;;;;;8.23;7.43;;;19.20;35.00;;;;;;6090975;23;20014;-68
2022/12/10 04:27:29;;;;;;;8.60;7.70;;;19.20;35.00;;;;;;6117121;23;20022;-64
2022/12/10 04:29:57;;;;;;;8.32;7.25;;;19.10;34.90;;;;;;6066585;23;20032;-64
2022/12/10 04:32:25;;;;;;;8.45;7.63;;;19.10;35.00;;;;;;6066057;23;20060;-64
2022/12/10 04:34:51;;;;;;;7.82;7.03;;;19.10;35.00;;;;;;6117143;23;20045;-64
2022/12/10 04:37:18;;;;;;;8.77;7.78;;;19.10;34.90;;;;;;6090377;23;20442;-64
2022/12/10 04:39:44;;;;;;;8.15;7.35;;;19.10;34.90;;;;;;6066170;23;20026;-64
2022/12/10 04:42:10;;;;;;;8.60;7.80;;;19.10;34.90;;;;;;6090910;23;20037;-65
2022/12/10 04:44:36;;;;;;;8.18;7.47;;;19.10;34.90;;;;;;6091164;23;20022;-64
2022/12/10 04:47:04;;;;;;;8.68;7.63;;;19.10;34.90;;;;;;6117017;23;20482;-64
2022/12/10 04:49:30;;;;;;;8.80;8.00;;;19.10;34.80;;;;;;6116719;23;20057;-66
2022/12/10 04:51:56;;;;;;;8.85;7.95;;;19.10;34.90;;;;;;6067060;23;20343;-64
2022/12/10 04:54:22;;;;;;;7.50;6.78;;;19.10;34.90;;;;;;6115871;23;20018;-64
2022/12/10 04:56:48;;;;;;;9.02;8.13;;;19.10;34.90;;;;;;6092821;23;20461;-64
2022/12/10 04:59:15;;;;;;;9.40;7.63;;;19.00;34.90;;;;;;6092219;23;20018;-62
2022/12/10 05:01:41;;;;;;;8.13;7.32;;;19.00;34.80;;;;;;6117891;23;20101;-64
2022/12/10 05:04:10;;;;;;;8.95;8.10;;;19.00;34.80;;;;;;6092679;23;20014;-65
2022/12/10 05:06:36;;;;;;;7.80;7.00;;;19.00;34.80;;;;;;6092686;23;20299;-64
2022/12/10 05:09:02;;;;;;;9.10;8.20;;;19.00;34.80;;;;;;6092498;23;20323;-64
2022/12/10 05:11:30;;;;;;;7.78;7.07;;;19.00;34.80;;;;;;6091759;23;20022;-63
2022/12/10 05:13:57;;;;;;;8.55;7.75;;;19.00;34.80;;;;;;6092757;23;20053;-64
2022/12/10 05:16:26;;;;;;;8.43;7.63;;;19.00;34.80;;;;;;6118392;23;20642;-65
2022/12/10 05:18:54;;;;;;;8.73;7.93;;;19.00;34.80;;;;;;6068107;23;20021;-64
2022/12/10 05:21:21;;;;;;;9.05;8.15;;;19.00;34.80;;;;;;6091891;23;20014;-64
2022/12/10 05:23:50;;;;;;;9.27;7.78;;;18.90;34.70;;;;;;6068486;23;20020;-64
2022/12/10 05:26:20;;;;;;;8.77;7.88;;;18.90;34.70;;;;;;6091884;23;20088;-64
2022/12/10 05:28:52;;;;;;;9.20;8.30;;;18.90;34.70;;;;;;6117853;23;20093;-65
2022/12/10 05:31:23;;;;;;;8.32;7.53;;;18.90;34.70;;;;;;6116479;23;20137;-65
2022/12/10 05:33:49;;;;;;;10.23;9.23;;;18.90;34.70;;;;;;6092220;23;20021;-64
2022/12/10 05:36:18;;;;;;;8.68;7.85;;;18.90;34.70;;;;;;6118199;23;20110;-68
2022/12/10 05:38:44;;;;;;;8.35;7.55;;;18.80;34.70;;;;;;6067718;23;20457;-64
2022/12/10 05:41:16;;;;;;;9.25;7.88;;;18.80;34.70;;;;;;6092225;23;20064;-64
2022/12/10 05:43:43;;;;;;;8.82;7.93;;;18.80;34.60;;;;;;6118012;23;20014;-64
2022/12/10 05:46:13;;;;;;;8.48;7.47;;;18.80;34.60;;;;;;6091998;23;20044;-65
2022/12/10 05:48:39;;;;;;;8.38;7.57;;;18.80;34.70;;;;;;6118804;23;20029;-63
2022/12/10 05:51:13;;;;;;;9.40;8.40;;;18.80;34.70;;;;;;6091739;23;20414;-65
2022/12/10 05:53:39;;;;;;;9.30;8.32;;;18.70;34.60;;;;;;6092065;23;20069;-64
2022/12/10 05:56:18;;;;;;;9.27;8.07;;;18.80;34.70;;;;;;6091418;23;20017;-64
2022/12/10 05:58:45;;;;;;;9.15;8.20;;;18.80;34.70;;;;;;6118017;23;20021;-63
2022/12/10 06:01:14;;;;;;;9.45;8.45;;;18.70;34.60;;;;;;6092300;23;20105;-64
2022/12/10 06:03:40;;;;;;;8.95;8.07;;;18.70;34.70;;;;;;6068098;23;20108;-64
2022/12/10 06:06:06;;;;;;;9.02;8.05;;;18.70;34.60;;;;;;6067556;23;20028;-64
2022/12/10 06:08:34;;;;;;;8.20;7.40;;;18.70;34.60;;;;;;6118057;23;20319;-64
2022/12/10 06:11:09;;;;;;;9.52;8.25;;;18.70;34.60;;;;;;6068133;23;20018;-65
2022/12/10 06:13:35;;;;;;;8.95;7.82;;;18.70;34.60;;;;;;6091105;23;20682;-64
2022/12/10 06:16:10;;;;;;;9.32;8.23;;;18.70;34.60;;;;;;6067699;23;20018;-64
2022/12/10 06:18:36;;;;;;;10.10;8.40;;;18.70;34.60;;;;;;6067999;23;20014;-65
2022/12/10 06:21:07;;;;;;;9.95;8.35;;;18.70;34.70;;;;;;6092310;23;20045;-64
2022/12/10 06:23:37;;;;;;;9.32;8.25;;;18.70;34.60;;;;;;6117931;23;20048;-64
2022/12/10 06:26:11;;;;;;;8.63;7.72;;;18.70;34.60;;;;;;6117145;23;20022;-63
2022/12/10 06:28:38;;;;;;;9.15;8.25;;;18.60;34.60;;;;;;6067944;23;20029;-64
2022/12/10 06:31:04;;;;;;;9.15;8.20;;;18.60;34.60;;;;;;6092596;23;20105;-63
2022/12/10 06:33:30;;;;;;;8.65;7.75;;;18.60;34.50;;;;;;6117664;23;20026;-64
2022/12/10 06:35:56;;;;;;;9.40;8.38;;;18.60;34.60;;;;;;6092676;23;20080;-63
2022/12/10 06:38:22;;;;;;;8.50;7.60;;;18.60;34.50;;;;;;6118229;23;20010;-64
2022/12/10 06:40:48;;;;;;;8.98;8.07;;;18.60;34.50;;;;;;6118569;23;20010;-64
2022/12/10 06:43:14;;;;;;;8.63;7.72;;;18.60;34.50;;;;;;6092302;23;20018;-64
2022/12/10 06:45:41;;;;;;;9.10;8.18;;;18.60;34.50;;;;;;6118046;23;20029;-64
2022/12/10 06:48:07;;;;;;;8.85;7.95;;;18.60;34.50;;;;;;6091844;23;20018;-63
2022/12/10 06:50:34;;;;;;;13.25;7.68;;;18.60;34.70;;;;;;6093190;23;20502;-65
2022/12/10 06:53:00;;;;;;;10.10;7.60;;;18.60;35.50;;;;;;6092397;23;20026;-64
2022/12/10 06:55:25;;;;;;;10.05;7.32;;;18.80;34.80;;;;;;6090852;23;20025;-64
2022/12/10 06:57:53;;;;;;;8.02;7.22;;;19.20;34.40;;;;;;6084302;23;20017;-65
2022/12/10 07:00:19;;;;;;;11.77;7.20;;;19.70;34.00;;;;;;6090864;23;20124;-65
2022/12/10 07:02:45;;;;;;;8.50;6.50;;;20.30;33.40;;;;;;6091910;23;20006;-64
2022/12/10 07:05:11;;;;;;;7.18;6.20;;;20.70;32.70;;;;;;6090004;23;20021;-64
2022/12/10 07:07:37;;;;;;;8.35;5.72;;;21.00;32.30;;;;;;6118367;23;20480;-65
2022/12/10 07:10:05;;;;;;;7.35;6.15;;;21.30;32.20;;;;;;6067342;23;20010;-65
2022/12/10 07:12:31;;;;;;;7.07;5.55;;;21.50;32.00;;;;;;6092750;23;20601;-62
2022/12/10 07:14:57;;;;;;;6.57;5.43;;;21.70;31.70;;;;;;6089978;23;20449;-65
2022/12/10 07:17:22;;;;;;;11.25;5.70;;;21.90;31.60;;;;;;6116169;23;20077;-65
2022/12/10 07:19:48;;;;;;;6.85;5.93;;;22.10;31.40;;;;;;6091325;23;20069;-65
2022/12/10 07:22:15;;;;;;;6.65;5.50;;;22.20;31.10;;;;;;6118442;23;20014;-64
2022/12/10 07:24:41;;;;;;;6.68;5.88;;;22.30;31.00;;;;;;6090793;23;20096;-65
2022/12/10 07:27:08;;;;;;;7.70;6.18;;;22.40;30.90;;;;;;6064809;23;20040;-65
2022/12/10 07:29:34;;;;;;;7.95;5.32;;;22.50;30.80;;;;;;6091256;23;20133;-64
2022/12/10 07:32:00;;;;;;;6.00;5.45;;;22.50;30.80;;;;;;6117081;23;20021;-65
2022/12/10 07:34:26;;;;;;;6.30;5.70;;;22.60;30.70;;;;;;6090695;23;20021;-65
2022/12/10 07:36:52;;;;;;;6.05;5.43;;;22.60;30.60;;;;;;6116411;23;20058;-64
2022/12/10 07:39:18;;;;;;;6.00;5.40;;;22.60;30.60;;;;;;6088938;23;20535;-64
2022/12/10 07:41:50;;;;;;;9.15;5.85;;;22.70;30.60;;;;;;6115526;23;20049;-65
2022/12/10 07:44:18;;;;;;;7.88;6.82;;;22.70;30.60;;;;;;6090354;23;20022;-65
2022/12/10 07:46:48;;;;;;;9.48;7.63;;;22.50;30.90;;;;;;6117011;23;20018;-65
2022/12/10 07:49:14;;;;;;;7.05;6.35;;;22.10;31.10;;;;;;6117132;23;20029;-65
2022/12/10 07:51:47;;;;;;;8.82;7.45;;;21.70;31.70;;;;;;6117074;23;20016;-65
2022/12/10 07:54:14;;;;;;;6.90;6.15;;;21.40;31.90;;;;;;6117498;23;20219;-64
2022/12/10 07:56:40;;;;;;;9.57;6.82;;;21.40;32.20;;;;;;6091759;23;20018;-66
2022/12/10 07:59:06;;;;;;;7.47;6.70;;;21.50;32.00;;;;;;6091626;23;20014;-64
2022/12/10 08:01:32;;;;;;;7.13;6.43;;;21.70;31.70;;;;;;6090843;23;20017;-65
2022/12/10 08:03:58;;;;;;;7.03;6.32;;;21.90;31.30;;;;;;6116447;23;20025;-65
2022/12/10 08:06:26;;;;;;;8.65;7.13;;;22.10;31.10;;;;;;6115458;23;20022;-64
2022/12/10 08:08:52;;;;;;;9.15;6.97;;;22.30;31.00;;;;;;6090916;23;20040;-64
2022/12/10 08:11:20;;;;;;;9.68;7.43;;;22.40;31.00;;;;;;6116299;23;20434;-64
2022/12/10 08:13:47;;;;;;;7.28;6.57;;;22.60;31.10;;;;;;6090469;23;20464;-64
2022/12/10 08:16:18;;;;;;;6.65;6.05;;;22.70;31.10;;;;;;6115706;23;20018;-65
2022/12/10 08:18:44;;;;;;;8.43;7.25;;;22.80;30.80;;;;;;6066282;23;20020;-63
2022/12/10 08:21:13;;;;;;;9.07;7.20;;;22.90;30.90;;;;;;6115942;23;20014;-65
2022/12/10 08:23:39;;;;;;;7.60;6.40;;;23.00;30.80;;;;;;6115915;23;20661;-64
2022/12/10 08:26:07;;;;;;;8.60;6.90;;;23.10;30.80;;;;;;6089562;23;20100;-65
2022/12/10 08:28:34;;;;;;;8.55;6.63;;;23.20;30.60;;;;;;6067526;23;20548;-64
2022/12/10 08:31:00;;;;;;;8.07;6.93;;;23.30;30.50;;;;;;6091965;23;20025;-64
2022/12/10 08:33:26;;;;;;;7.85;6.65;;;23.30;30.40;;;;;;6092153;23;20072;-65
2022/12/10 08:35:59;;;;;;;9.77;6.70;;;23.40;30.40;;;;;;6063316;23;20937;-65
2022/12/10 08:38:27;;;;;;;7.63;6.90;;;23.40;30.30;;;;;;6069260;23;20014;-65
2022/12/10 08:40:54;;;;;;;7.50;6.47;;;23.30;30.40;;;;;;6092216;23;20049;-64
2022/12/10 08:43:23;;;;;;;7.93;6.25;;;23.30;30.60;;;;;;6093204;23;20124;-65
2022/12/10 08:45:49;;;;;;;7.18;6.45;;;23.20;30.80;;;;;;6092315;23;20022;-65
2022/12/10 08:48:19;;;;;;;9.93;7.63;;;23.00;31.00;;;;;;6069223;23;20018;-66
2022/12/10 08:50:48;;;;;;;9.45;6.22;;;22.70;31.30;;;;;;6067778;23;20030;-68
2022/12/10 08:53:15;;;;;;;7.90;6.97;;;22.30;31.90;;;;;;6067191;23;20390;-65
2022/12/10 08:55:42;;;;;;;10.60;8.85;;;21.90;32.40;;;;;;6067572;23;20073;-64
2022/12/10 08:58:10;;;;;;;9.45;7.68;;;21.70;32.50;;;;;;6092543;23;20010;-65
2022/12/10 09:00:38;;;;;;;11.15;8.43;;;21.70;32.60;;;;;;6067644;23;20010;-65
2022/12/10 09:03:05;;;;;;;11.00;8.20;;;21.90;32.20;;;;;;6068456;23;20026;-64
2022/12/10 09:05:35;;;;;;;9.32;8.02;;;22.30;31.70;;;;;;6066207;23;20018;-64
2022/12/10 09:08:03;;;;;;;9.13;7.90;;;22.60;31.10;;;;;;6066925;23;20017;-65
2022/12/10 09:10:30;;;;;;;14.82;7.47;;;22.90;31.00;;;;;;6067285;23;20021;-66
2022/12/10 09:12:56;;;;;;;13.38;7.97;;;23.00;30.60;;;;;;6067354;23;20081;-65
2022/12/10 09:15:22;;;;;;;14.10;7.90;;;23.20;30.70;;;;;;6090415;23;20014;-64
2022/12/10 09:17:48;;;;;;;14.60;7.40;;;23.30;30.60;;;;;;6090285;23;20673;-65
2022/12/10 09:20:14;;;;;;;9.45;7.95;;;23.30;30.40;;;;;;6065511;23;20383;-64
2022/12/10 09:22:40;;;;;;;10.05;7.93;;;23.40;31.10;;;;;;6067471;23;20112;-64
2022/12/10 09:25:09;;;;;;;8.70;7.60;;;23.40;30.30;;;;;;6117523;23;20353;-64
2022/12/10 09:27:36;;;;;;;13.18;8.07;;;23.50;30.30;;;;;;6066987;23;20014;-65
2022/12/10 09:30:04;;;;;;;8.63;7.78;;;23.60;30.20;;;;;;6113702;23;20354;-64
2022/12/10 09:32:30;;;;;;;8.48;7.68;;;23.70;30.20;;;;;;6090552;23;20369;-65
2022/12/10 09:34:55;;;;;;;8.70;7.80;;;23.70;30.20;;;;;;6089669;23;20524;-63
2022/12/10 09:37:21;;;;;;;9.90;7.68;;;23.80;30.20;;;;;;6090398;23;20026;-63
2022/12/10 09:39:48;;;;;;;8.48;7.78;;;23.80;30.20;;;;;;6115902;23;20453;-64
2022/12/10 09:42:57;;;;;;;9.13;7.80;;;23.80;30.30;;;;;;6090407;23;20361;-65
2022/12/10 09:45:34;;;;;;;9.70;8.55;;;23.80;30.20;;;;;;6116014;23;20020;-64
2022/12/10 09:48:15;;;;;;;10.13;8.20;;;23.70;30.40;;;;;;6092330;23;20010;-64
2022/12/10 09:51:18;;;;;;;9.65;8.30;;;23.60;30.70;;;;;;6114529;23;20013;-64
2022/12/10 09:53:45;;;;;;;9.13;7.32;;;23.40;31.10;;;;;;6089482;23;20447;-64
2022/12/10 09:56:23;;;;;;;9.70;8.70;;;23.20;31.40;;;;;;6089634;23;20410;-64
2022/12/10 09:58:49;;;;;;;15.15;8.77;;;22.90;32.10;;;;;;6091088;23;20010;-63
2022/12/10 10:01:18;;;;;;;11.27;8.52;;;22.50;32.90;;;;;;6088510;23;20021;-64
2022/12/10 10:03:43;;;;;;;15.77;9.80;;;22.20;33.50;;;;;;6088950;23;20179;-64
2022/12/10 10:06:13;;;;;;;12.13;9.13;;;21.90;33.80;;;;;;6090142;23;20072;-64
2022/12/10 10:08:46;;;;;;;12.48;9.50;;;21.70;33.80;;;;;;6065153;23;20018;-64
2022/12/10 10:11:17;;;;;;;10.30;9.00;;;21.80;33.60;;;;;;6115111;23;20043;-64
2022/12/10 10:14:11;;;;;;;10.77;9.10;;;22.10;33.40;;;;;;6064565;23;20053;-64
2022/12/10 10:16:52;;;;;;;11.02;8.30;;;22.50;33.00;;;;;;6116076;23;20017;-65
2022/12/10 10:19:38;;;;;;;11.95;8.90;;;22.90;32.70;;;;;;6116488;23;20006;-64
2022/12/10 10:22:05;;;;;;;13.43;8.90;;;23.10;32.20;;;;;;6115256;23;20021;-65
2022/12/10 10:24:47;;;;;;;10.43;8.40;;;23.30;31.90;;;;;;6089448;23;20076;-64
2022/12/10 10:27:28;;;;;;;16.83;9.25;;;23.40;31.60;;;;;;6115769;23;20010;-64
2022/12/10 10:29:56;;;;;;;;;;;23.60;31.60;;;;;;6117455;23;20394;-64
2022/12/10 10:32:35;;;;;;;10.77;9.35;;;23.60;31.80;;;;;;6090266;23;19920;-64
2022/12/10 10:35:03;;;;;;;11.75;9.02;;;23.80;31.70;;;;;;6065665;23;20025;-65
2022/12/10 10:37:42;;;;;;;12.50;9.02;;;23.70;31.70;;;;;;6087894;23;20037;-64
2022/12/10 10:40:30;;;;;;;10.50;9.43;;;23.80;31.80;;;;;;6090728;23;20097;-64
2022/12/10 10:42:58;;;;;;;11.75;9.00;;;23.80;31.80;;;;;;6117502;23;20025;-64
2022/12/10 10:45:32;;;;;;;16.42;9.38;;;23.60;31.90;;;;;;6043291;23;20021;-64
2022/12/10 10:48:05;;;;;;;13.95;9.80;;;23.60;32.20;;;;;;6090613;23;20054;-63
2022/12/10 10:50:35;;;;;;;12.95;9.82;;;23.40;32.40;;;;;;6066661;23;20357;-64
2022/12/10 10:53:01;;;;;;;12.32;10.25;;;23.30;32.60;;;;;;6091587;23;20018;-64
2022/12/10 10:55:35;;;;;;;12.70;10.60;;;23.30;32.90;;;;;;6089764;23;20052;-64
2022/12/10 10:58:01;;;;;;;15.02;10.23;;;23.20;32.90;;;;;;6090342;23;20017;-64
2022/12/10 11:00:27;;;;;;;12.88;10.73;;;23.20;32.90;;;;;;6090323;23;20044;-65
2022/12/10 11:02:53;;;;;;;14.65;10.05;;;23.10;32.90;;;;;;6090092;23;20021;-63
2022/12/10 11:05:29;;;;;;;15.98;10.27;;;23.10;32.90;;;;;;6085480;23;20041;-63
2022/12/10 11:08:07;;;;;;;14.27;10.25;;;23.10;33.10;;;;;;6066209;23;20037;-63
2022/12/10 11:10:33;;;;;;;14.43;10.88;;;23.10;33.10;;;;;;6090787;23;20085;-65
2022/12/10 11:13:17;;;;;;;16.88;11.95;;;22.90;33.20;;;;;;6064496;23;20014;-65
2022/12/10 11:15:44;;;;;;;16.95;12.95;;;22.60;33.30;;;;;;6115227;23;20013;-66
2022/12/10 11:18:27;;;;;;;17.48;12.38;;;22.20;33.40;;;;;;6090120;23;20013;-67
2022/12/10 11:21:14;;;;;;;16.60;12.25;;;21.90;34.20;;;;;;6115280;23;20018;-65
2022/12/10 11:23:49;;;;;;;18.15;12.25;;;21.60;34.70;;;;;;6115893;23;20029;-66
2022/12/10 11:26:50;;;;;;;20.25;12.73;;;21.70;35.00;;;;;;6064535;23;20021;-65
2022/12/10 11:29:28;;;;;;;17.80;11.88;;;22.10;34.80;;;;;;6090735;23;20025;-65
2022/12/10 11:32:26;;;;;;;19.65;11.32;;;22.50;34.00;;;;;;6089861;23;20026;-65
2022/12/10 11:35:13;;;;;;;18.45;12.10;;;23.00;33.60;;;;;;6067865;23;20362;-65
2022/12/10 11:37:48;;;;;;;18.48;12.18;;;23.20;33.20;;;;;;6114166;23;20057;-64
2022/12/10 11:40:42;;;;;;;18.13;12.98;;;23.40;32.90;;;;;;6086462;23;20370;-66
2022/12/10 11:43:52;;;;;;;18.30;12.10;;;23.60;32.60;;;;;;6088909;23;20323;-65
2022/12/10 11:46:36;;;;;;;26.88;13.10;;;23.60;32.40;;;;;;5967719;24;20245;-63
2022/12/10 11:49:23;;;;;;;20.52;13.13;;;23.70;32.50;;;;;;6076762;23;20033;-64
2022/12/10 11:51:55;;;;;;;16.30;12.48;;;23.70;32.50;;;;;;6089389;23;20508;-65
2022/12/10 11:54:59;;;;;;;23.02;13.00;;;23.60;32.60;;;;;;6064118;23;20014;-65
2022/12/10 11:57:43;;;;;;;19.92;12.45;;;23.40;32.50;;;;;;6087922;23;20391;-66
2022/12/10 12:00:18;;;;;;;19.45;13.70;;;23.20;32.80;;;;;;6087317;23;20088;-65
2022/12/10 12:02:46;;;;;;;19.42;13.13;;;23.10;32.90;;;;;;6086329;23;20085;-65
2022/12/10 12:05:46;;;;;;;26.73;13.18;;;23.10;33.00;;;;;;6088632;23;20014;-66
2022/12/10 12:08:31;;;;;;;15.18;12.60;;;23.10;33.10;;;;;;6114569;23;20062;-65
2022/12/10 12:11:12;;;;;;;19.95;12.80;;;23.10;33.10;;;;;;6116147;23;20022;-66
2022/12/10 12:13:49;;;;;;;17.95;11.95;;;23.10;33.20;;;;;;6114895;23;20343;-65
2022/12/10 12:16:25;;;;;;;18.33;12.52;;;23.10;33.30;;;;;;6114119;23;20020;-65
2022/12/10 12:19:16;;;;;;;18.92;12.48;;;23.10;33.30;;;;;;6090405;23;20074;-65
2022/12/10 12:21:44;;;;;;;19.65;13.18;;;23.10;33.30;;;;;;6065757;23;20022;-66
2022/12/10 12:24:25;;;;;;;17.00;13.18;;;23.10;33.30;;;;;;6067087;23;20032;-65
2022/12/10 12:26:53;;;;;;;;;;;23.20;33.30;;;;;;6116549;23;20022;-65
2022/12/10 12:29:35;;;;;;;17.52;12.68;;;23.20;33.30;;;;;;6091027;23;19921;-65
2022/12/10 12:32:40;;;;;;;16.08;12.15;;;23.20;33.30;;;;;;6066276;23;20432;-66
2022/12/10 12:35:20;;;;;;;17.17;13.10;;;23.20;33.20;;;;;;6096745;23;20029;-65
2022/12/10 12:37:59;;;;;;;18.40;12.27;;;23.10;33.10;;;;;;6114690;23;20018;-65
2022/12/10 12:40:34;;;;;;;17.20;13.15;;;23.20;33.30;;;;;;6088917;23;20705;-63
2022/12/10 12:43:10;;;;;;;18.20;13.70;;;23.10;33.30;;;;;;6090501;23;20618;-64
2022/12/10 12:45:43;;;;;;;18.73;13.40;;;23.10;33.30;;;;;;6088731;23;20014;-65
2022/12/10 12:48:33;;;;;;;15.27;12.13;;;23.10;33.20;;;;;;6089836;23;20061;-65
2022/12/10 12:51:33;;;;;;;15.87;12.17;;;23.10;33.20;;;;;;6115497;23;20018;-65
2022/12/10 12:53:59;;;;;;;19.42;14.30;;;22.90;33.40;;;;;;6089204;23;20025;-65
2022/12/10 12:56:25;;;;;;;18.95;15.20;;;22.50;33.70;;;;;;6114933;23;20017;-65
2022/12/10 12:59:32;;;;;;;20.23;14.38;;;22.20;33.90;;;;;;6090836;23;20554;-65
2022/12/10 13:02:14;;;;;;;17.70;13.20;;;21.80;33.90;;;;;;6034553;23;20040;-64
2022/12/10 13:04:40;;;;;;;21.02;13.98;;;21.50;34.90;;;;;;6066963;23;20045;-63
2022/12/10 13:07:13;;;;;;;16.75;12.18;;;21.50;34.90;;;;;;6090287;23;20025;-65
2022/12/10 13:09:46;;;;;;;15.43;12.55;;;21.80;34.50;;;;;;6090532;23;20073;-65
2022/12/10 13:12:15;;;;;;;17.20;13.70;;;22.20;34.00;;;;;;6116065;23;20481;-66